YPCC

Cocos (Keeling) Islands Airport

Cocos (Keeling) Islands, Australia
METAR YPCC 221600Z AUTO 14013KT 9999 // SCT026 OVC032 27/23 Q1010
Observed Flight Rules
Feb-22 @ 16:00 UTC (38 minutes ago) Visual Flight Rules
Wind Visibility Clouds
140° at 13 knots 10,000+ meters
  • Scattered at 2,600' AGL
  • Overcast at 3,200' AGL
Temperatures Readings
Current 27°C / 81°F
Dewpoint 23°C / 73°F
Humidity 79%
Altimeter 29.82" Hg
Pressure 1010 hPa
Elevation 3
METAR YPCC 221600Z AUTO 14013KT 9999 // SCT026 OVC032 27/23 Q1010
Observed Flight Rules
Feb-22 @ 16:00 UTC
(38 minutes ago)
VFR
Wind Visibility
140° at 13 knots 10,000+ meters
Clouds
  • Scattered at 2,600' AGL
  • Overcast at 3,200' AGL
Temperature Dewpoint
27°C / 81°F 23°C / 73°F
Humidity Altimeter Pressure
79% 29.82" Hg 1010 hPa